sensor_id;sensor_type;location;lat;lon;timestamp;pressure;altitude;pressure_sealevel;temperature
15079;BMP180;6932;51.438;5.470;2023-05-23T00:00:59;101497.00;;;20.70
15079;BMP180;6932;51.438;5.470;2023-05-23T00:03:26;101492.00;;;20.70
15079;BMP180;6932;51.438;5.470;2023-05-23T00:05:52;101494.00;;;20.70
15079;BMP180;6932;51.438;5.470;2023-05-23T00:08:17;101489.00;;;20.70
15079;BMP180;6932;51.438;5.470;2023-05-23T00:10:44;101494.00;;;20.70
15079;BMP180;6932;51.438;5.470;2023-05-23T00:13:11;101500.00;;;20.70
15079;BMP180;6932;51.438;5.470;2023-05-23T00:15:41;101503.00;;;20.70
15079;BMP180;6932;51.438;5.470;2023-05-23T00:18:07;101506.00;;;20.70
15079;BMP180;6932;51.438;5.470;2023-05-23T00:20:39;101501.00;;;20.70
15079;BMP180;6932;51.438;5.470;2023-05-23T00:23:11;101509.00;;;20.60
15079;BMP180;6932;51.438;5.470;2023-05-23T00:25:44;101505.00;;;20.60
15079;BMP180;6932;51.438;5.470;2023-05-23T00:28:13;101515.00;;;20.60
15079;BMP180;6932;51.438;5.470;2023-05-23T00:30:39;101515.00;;;20.60
15079;BMP180;6932;51.438;5.470;2023-05-23T00:33:05;101518.00;;;20.60
15079;BMP180;6932;51.438;5.470;2023-05-23T00:35:31;101512.00;;;20.60
15079;BMP180;6932;51.438;5.470;2023-05-23T00:37:56;101516.00;;;20.60
15079;BMP180;6932;51.438;5.470;2023-05-23T00:40:22;101512.00;;;20.60
15079;BMP180;6932;51.438;5.470;2023-05-23T00:42:48;101506.00;;;20.60
15079;BMP180;6932;51.438;5.470;2023-05-23T00:45:14;101503.00;;;20.60
15079;BMP180;6932;51.438;5.470;2023-05-23T00:47:42;101504.00;;;20.60
15079;BMP180;6932;51.438;5.470;2023-05-23T00:50:11;101513.00;;;20.60
15079;BMP180;6932;51.438;5.470;2023-05-23T00:52:39;101507.00;;;20.60
15079;BMP180;6932;51.438;5.470;2023-05-23T00:55:07;101510.00;;;20.60
15079;BMP180;6932;51.438;5.470;2023-05-23T00:57:37;101513.00;;;20.70
15079;BMP180;6932;51.438;5.470;2023-05-23T01:00:15;101514.00;;;20.70
15079;BMP180;6932;51.438;5.470;2023-05-23T01:02:46;101523.00;;;20.70
15079;BMP180;6932;51.438;5.470;2023-05-23T01:05:15;101515.00;;;20.70
15079;BMP180;6932;51.438;5.470;2023-05-23T01:07:49;101528.00;;;20.70
15079;BMP180;6932;51.438;5.470;2023-05-23T01:10:20;101524.00;;;20.70
15079;BMP180;6932;51.438;5.470;2023-05-23T01:13:23;101529.00;;;20.80
15079;BMP180;6932;51.438;5.470;2023-05-23T01:16:11;101526.00;;;20.70
15079;BMP180;6932;51.438;5.470;2023-05-23T01:19:29;101525.00;;;20.70
15079;BMP180;6932;51.438;5.470;2023-05-23T01:22:10;101539.00;;;20.70
15079;BMP180;6932;51.438;5.470;2023-05-23T01:25:10;101540.00;;;20.70
15079;BMP180;6932;51.438;5.470;2023-05-23T01:27:47;101535.00;;;20.70
15079;BMP180;6932;51.438;5.470;2023-05-23T01:30:19;101536.00;;;20.70
15079;BMP180;6932;51.438;5.470;2023-05-23T01:32:49;101533.00;;;20.70
15079;BMP180;6932;51.438;5.470;2023-05-23T01:35:25;101541.00;;;20.70
15079;BMP180;6932;51.438;5.470;2023-05-23T01:37:53;101546.00;;;20.70
15079;BMP180;6932;51.438;5.470;2023-05-23T01:40:19;101546.00;;;20.70
15079;BMP180;6932;51.438;5.470;2023-05-23T01:42:46;101553.00;;;20.60
15079;BMP180;6932;51.438;5.470;2023-05-23T01:45:13;101551.00;;;20.70
15079;BMP180;6932;51.438;5.470;2023-05-23T01:47:40;101557.00;;;20.60
15079;BMP180;6932;51.438;5.470;2023-05-23T01:50:08;101551.00;;;20.60
15079;BMP180;6932;51.438;5.470;2023-05-23T01:52:35;101549.00;;;20.60
15079;BMP180;6932;51.438;5.470;2023-05-23T01:55:04;101549.00;;;20.60
15079;BMP180;6932;51.438;5.470;2023-05-23T01:57:35;101553.00;;;20.60
15079;BMP180;6932;51.438;5.470;2023-05-23T02:00:06;101564.00;;;20.60
15079;BMP180;6932;51.438;5.470;2023-05-23T02:02:36;101550.00;;;20.60
15079;BMP180;6932;51.438;5.470;2023-05-23T02:05:01;101551.00;;;20.60
15079;BMP180;6932;51.438;5.470;2023-05-23T02:07:27;101555.00;;;20.60
15079;BMP180;6932;51.438;5.470;2023-05-23T02:09:54;101554.00;;;20.60
15079;BMP180;6932;51.438;5.470;2023-05-23T02:12:19;101551.00;;;20.60
15079;BMP180;6932;51.438;5.470;2023-05-23T02:14:45;101567.00;;;20.60
15079;BMP180;6932;51.438;5.470;2023-05-23T02:17:11;101568.00;;;20.60
15079;BMP180;6932;51.438;5.470;2023-05-23T02:19:39;101571.00;;;20.60
15079;BMP180;6932;51.438;5.470;2023-05-23T02:22:05;101573.00;;;20.60
15079;BMP180;6932;51.438;5.470;2023-05-23T02:24:30;101573.00;;;20.60
15079;BMP180;6932;51.438;5.470;2023-05-23T02:26:56;101567.00;;;20.50
15079;BMP180;6932;51.438;5.470;2023-05-23T02:29:22;101574.00;;;20.50
15079;BMP180;6932;51.438;5.470;2023-05-23T02:31:47;101582.00;;;20.50
15079;BMP180;6932;51.438;5.470;2023-05-23T02:34:13;101578.00;;;20.50
15079;BMP180;6932;51.438;5.470;2023-05-23T02:36:39;101581.00;;;20.50
15079;BMP180;6932;51.438;5.470;2023-05-23T02:39:05;101588.00;;;20.50
15079;BMP180;6932;51.438;5.470;2023-05-23T02:41:31;101582.00;;;20.50
15079;BMP180;6932;51.438;5.470;2023-05-23T02:43:58;101574.00;;;20.50
15079;BMP180;6932;51.438;5.470;2023-05-23T02:46:23;101575.00;;;20.50
15079;BMP180;6932;51.438;5.470;2023-05-23T02:48:49;101583.00;;;20.50
15079;BMP180;6932;51.438;5.470;2023-05-23T02:51:15;101581.00;;;20.50
15079;BMP180;6932;51.438;5.470;2023-05-23T02:53:41;101589.00;;;20.50
15079;BMP180;6932;51.438;5.470;2023-05-23T02:56:07;101583.00;;;20.50
15079;BMP180;6932;51.438;5.470;2023-05-23T02:58:33;101582.00;;;20.50
15079;BMP180;6932;51.438;5.470;2023-05-23T03:01:02;101579.00;;;20.50
15079;BMP180;6932;51.438;5.470;2023-05-23T03:03:28;101583.00;;;20.50
15079;BMP180;6932;51.438;5.470;2023-05-23T03:05:59;101577.00;;;20.50
15079;BMP180;6932;51.438;5.470;2023-05-23T03:08:25;101575.00;;;20.50
15079;BMP180;6932;51.438;5.470;2023-05-23T03:10:51;101582.00;;;20.50
15079;BMP180;6932;51.438;5.470;2023-05-23T03:13:17;101580.00;;;20.40
15079;BMP180;6932;51.438;5.470;2023-05-23T03:15:43;101579.00;;;20.40
15079;BMP180;6932;51.438;5.470;2023-05-23T03:18:09;101583.00;;;20.40
15079;BMP180;6932;51.438;5.470;2023-05-23T03:20:35;101578.00;;;20.40
15079;BMP180;6932;51.438;5.470;2023-05-23T03:23:01;101577.00;;;20.40
15079;BMP180;6932;51.438;5.470;2023-05-23T03:25:27;101587.00;;;20.40
15079;BMP180;6932;51.438;5.470;2023-05-23T03:27:52;101586.00;;;20.40
15079;BMP180;6932;51.438;5.470;2023-05-23T03:30:19;101597.00;;;20.40
15079;BMP180;6932;51.438;5.470;2023-05-23T03:32:45;101593.00;;;20.40
15079;BMP180;6932;51.438;5.470;2023-05-23T03:35:11;101584.00;;;20.40
15079;BMP180;6932;51.438;5.470;2023-05-23T03:37:37;101595.00;;;20.40
15079;BMP180;6932;51.438;5.470;2023-05-23T03:40:03;101598.00;;;20.40
15079;BMP180;6932;51.438;5.470;2023-05-23T03:42:29;101600.00;;;20.30
15079;BMP180;6932;51.438;5.470;2023-05-23T03:44:55;101607.00;;;20.30
15079;BMP180;6932;51.438;5.470;2023-05-23T03:47:22;101600.00;;;20.30
15079;BMP180;6932;51.438;5.470;2023-05-23T03:49:49;101592.00;;;20.30
15079;BMP180;6932;51.438;5.470;2023-05-23T03:52:15;101593.00;;;20.30
15079;BMP180;6932;51.438;5.470;2023-05-23T03:54:40;101601.00;;;20.30
15079;BMP180;6932;51.438;5.470;2023-05-23T03:57:07;101606.00;;;20.30
15079;BMP180;6932;51.438;5.470;2023-05-23T03:59:33;101602.00;;;20.30
15079;BMP180;6932;51.438;5.470;2023-05-23T04:01:59;101620.00;;;20.30
15079;BMP180;6932;51.438;5.470;2023-05-23T04:04:26;101616.00;;;20.30
15079;BMP180;6932;51.438;5.470;2023-05-23T04:06:52;101619.00;;;20.30
15079;BMP180;6932;51.438;5.470;2023-05-23T04:09:18;101618.00;;;20.30
15079;BMP180;6932;51.438;5.470;2023-05-23T04:11:44;101613.00;;;20.30
15079;BMP180;6932;51.438;5.470;2023-05-23T04:14:10;101622.00;;;20.30
15079;BMP180;6932;51.438;5.470;2023-05-23T04:16:37;101626.00;;;20.30
15079;BMP180;6932;51.438;5.470;2023-05-23T04:19:06;101623.00;;;20.30
15079;BMP180;6932;51.438;5.470;2023-05-23T04:21:33;101625.00;;;20.30
15079;BMP180;6932;51.438;5.470;2023-05-23T04:24:00;101633.00;;;20.30
15079;BMP180;6932;51.438;5.470;2023-05-23T04:26:26;101633.00;;;20.30
15079;BMP180;6932;51.438;5.470;2023-05-23T04:28:52;101625.00;;;20.30
15079;BMP180;6932;51.438;5.470;2023-05-23T04:31:20;101629.00;;;20.30
15079;BMP180;6932;51.438;5.470;2023-05-23T04:33:47;101630.00;;;20.30
15079;BMP180;6932;51.438;5.470;2023-05-23T04:36:14;101637.00;;;20.30
15079;BMP180;6932;51.438;5.470;2023-05-23T04:38:39;101631.00;;;20.30
15079;BMP180;6932;51.438;5.470;2023-05-23T04:41:07;101631.00;;;20.30
15079;BMP180;6932;51.438;5.470;2023-05-23T04:43:35;101639.00;;;20.30
15079;BMP180;6932;51.438;5.470;2023-05-23T04:46:02;101650.00;;;20.40
15079;BMP180;6932;51.438;5.470;2023-05-23T04:48:28;101644.00;;;20.40
15079;BMP180;6932;51.438;5.470;2023-05-23T04:50:55;101642.00;;;20.40
15079;BMP180;6932;51.438;5.470;2023-05-23T04:53:22;101634.00;;;20.40
15079;BMP180;6932;51.438;5.470;2023-05-23T04:55:48;101653.00;;;20.40
15079;BMP180;6932;51.438;5.470;2023-05-23T04:58:13;101647.00;;;20.40
15079;BMP180;6932;51.438;5.470;2023-05-23T05:00:39;101655.00;;;20.40
15079;BMP180;6932;51.438;5.470;2023-05-23T05:03:05;101644.00;;;20.30
15079;BMP180;6932;51.438;5.470;2023-05-23T05:05:31;101653.00;;;20.30
15079;BMP180;6932;51.438;5.470;2023-05-23T05:07:56;101652.00;;;20.30
15079;BMP180;6932;51.438;5.470;2023-05-23T05:10:22;101653.00;;;20.30
15079;BMP180;6932;51.438;5.470;2023-05-23T05:12:48;101658.00;;;20.30
15079;BMP180;6932;51.438;5.470;2023-05-23T05:15:17;101662.00;;;20.30
15079;BMP180;6932;51.438;5.470;2023-05-23T05:17:43;101655.00;;;20.30
15079;BMP180;6932;51.438;5.470;2023-05-23T05:20:10;101664.00;;;20.20
15079;BMP180;6932;51.438;5.470;2023-05-23T05:22:37;101663.00;;;20.20
15079;BMP180;6932;51.438;5.470;2023-05-23T05:25:08;101675.00;;;20.20
15079;BMP180;6932;51.438;5.470;2023-05-23T05:27:34;101669.00;;;20.20
15079;BMP180;6932;51.438;5.470;2023-05-23T05:30:08;101677.00;;;20.20
15079;BMP180;6932;51.438;5.470;2023-05-23T05:32:34;101679.00;;;20.20
15079;BMP180;6932;51.438;5.470;2023-05-23T05:35:00;101672.00;;;20.20
15079;BMP180;6932;51.438;5.470;2023-05-23T05:37:26;101681.00;;;20.20
15079;BMP180;6932;51.438;5.470;2023-05-23T05:39:54;101680.00;;;20.20
15079;BMP180;6932;51.438;5.470;2023-05-23T05:42:21;101679.00;;;20.20
15079;BMP180;6932;51.438;5.470;2023-05-23T05:44:48;101695.00;;;20.20
15079;BMP180;6932;51.438;5.470;2023-05-23T05:47:14;101696.00;;;20.20
15079;BMP180;6932;51.438;5.470;2023-05-23T05:49:40;101686.00;;;20.10
15079;BMP180;6932;51.438;5.470;2023-05-23T05:52:07;101688.00;;;20.10
15079;BMP180;6932;51.438;5.470;2023-05-23T05:54:33;101687.00;;;20.10
15079;BMP180;6932;51.438;5.470;2023-05-23T05:56:59;101685.00;;;20.10
15079;BMP180;6932;51.438;5.470;2023-05-23T05:59:25;101702.00;;;20.20
15079;BMP180;6932;51.438;5.470;2023-05-23T06:01:52;101698.00;;;20.20
15079;BMP180;6932;51.438;5.470;2023-05-23T06:04:18;101702.00;;;20.20
15079;BMP180;6932;51.438;5.470;2023-05-23T06:06:44;101704.00;;;20.20
15079;BMP180;6932;51.438;5.470;2023-05-23T06:09:10;101708.00;;;20.20
15079;BMP180;6932;51.438;5.470;2023-05-23T06:11:36;101707.00;;;20.20
15079;BMP180;6932;51.438;5.470;2023-05-23T06:14:08;101713.00;;;20.20
15079;BMP180;6932;51.438;5.470;2023-05-23T06:16:34;101720.00;;;20.20
15079;BMP180;6932;51.438;5.470;2023-05-23T06:18:59;101714.00;;;20.20
15079;BMP180;6932;51.438;5.470;2023-05-23T06:21:25;101719.00;;;20.20
15079;BMP180;6932;51.438;5.470;2023-05-23T06:23:52;101718.00;;;20.20
15079;BMP180;6932;51.438;5.470;2023-05-23T06:26:17;101725.00;;;20.20
15079;BMP180;6932;51.438;5.470;2023-05-23T06:28:43;101718.00;;;20.20
15079;BMP180;6932;51.438;5.470;2023-05-23T06:31:09;101723.00;;;20.20
15079;BMP180;6932;51.438;5.470;2023-05-23T06:33:35;101734.00;;;20.20
15079;BMP180;6932;51.438;5.470;2023-05-23T06:36:00;101731.00;;;20.10
15079;BMP180;6932;51.438;5.470;2023-05-23T06:38:30;101735.00;;;20.10
15079;BMP180;6932;51.438;5.470;2023-05-23T06:40:58;101737.00;;;20.10
15079;BMP180;6932;51.438;5.470;2023-05-23T06:43:24;101733.00;;;20.00
15079;BMP180;6932;51.438;5.470;2023-05-23T06:45:50;101734.00;;;20.00
15079;BMP180;6932;51.438;5.470;2023-05-23T06:48:16;101743.00;;;20.00
15079;BMP180;6932;51.438;5.470;2023-05-23T06:50:42;101742.00;;;20.00
15079;BMP180;6932;51.438;5.470;2023-05-23T06:53:08;101760.00;;;20.00
15079;BMP180;6932;51.438;5.470;2023-05-23T06:55:33;101760.00;;;20.00
15079;BMP180;6932;51.438;5.470;2023-05-23T06:58:00;101760.00;;;20.00
15079;BMP180;6932;51.438;5.470;2023-05-23T07:00:30;101772.00;;;20.00
15079;BMP180;6932;51.438;5.470;2023-05-23T07:02:56;101758.00;;;20.00
15079;BMP180;6932;51.438;5.470;2023-05-23T07:05:26;101772.00;;;20.00
15079;BMP180;6932;51.438;5.470;2023-05-23T07:07:53;101772.00;;;20.00
15079;BMP180;6932;51.438;5.470;2023-05-23T07:10:19;101772.00;;;20.00
15079;BMP180;6932;51.438;5.470;2023-05-23T07:12:46;101779.00;;;20.00
15079;BMP180;6932;51.438;5.470;2023-05-23T07:15:12;101781.00;;;19.90
15079;BMP180;6932;51.438;5.470;2023-05-23T07:17:39;101774.00;;;19.90
15079;BMP180;6932;51.438;5.470;2023-05-23T07:20:06;101778.00;;;19.80
15079;BMP180;6932;51.438;5.470;2023-05-23T07:22:32;101782.00;;;19.70
15079;BMP180;6932;51.438;5.470;2023-05-23T07:24:58;101789.00;;;19.60
15079;BMP180;6932;51.438;5.470;2023-05-23T07:27:26;101785.00;;;19.60
15079;BMP180;6932;51.438;5.470;2023-05-23T07:29:52;101785.00;;;19.50
15079;BMP180;6932;51.438;5.470;2023-05-23T07:32:18;101797.00;;;19.50
15079;BMP180;6932;51.438;5.470;2023-05-23T07:34:44;101796.00;;;19.40
15079;BMP180;6932;51.438;5.470;2023-05-23T07:37:09;101790.00;;;19.40
15079;BMP180;6932;51.438;5.470;2023-05-23T07:39:35;101803.00;;;19.40
15079;BMP180;6932;51.438;5.470;2023-05-23T07:42:01;101792.00;;;19.40
15079;BMP180;6932;51.438;5.470;2023-05-23T07:44:27;101799.00;;;19.40
15079;BMP180;6932;51.438;5.470;2023-05-23T07:46:53;101798.00;;;19.40
15079;BMP180;6932;51.438;5.470;2023-05-23T07:49:19;101806.00;;;19.40
15079;BMP180;6932;51.438;5.470;2023-05-23T07:51:45;101802.00;;;19.50
15079;BMP180;6932;51.438;5.470;2023-05-23T07:54:11;101801.00;;;19.60
15079;BMP180;6932;51.438;5.470;2023-05-23T07:56:37;101814.00;;;19.60
15079;BMP180;6932;51.438;5.470;2023-05-23T07:59:05;101812.00;;;19.70
15079;BMP180;6932;51.438;5.470;2023-05-23T08:01:33;101809.00;;;19.80
15079;BMP180;6932;51.438;5.470;2023-05-23T08:03:58;101809.00;;;19.80
15079;BMP180;6932;51.438;5.470;2023-05-23T08:06:24;101813.00;;;19.90
15079;BMP180;6932;51.438;5.470;2023-05-23T08:08:50;101815.00;;;20.00
15079;BMP180;6932;51.438;5.470;2023-05-23T08:11:16;101821.00;;;20.00
15079;BMP180;6932;51.438;5.470;2023-05-23T08:13:41;101824.00;;;20.10
15079;BMP180;6932;51.438;5.470;2023-05-23T08:16:07;101822.00;;;20.10
15079;BMP180;6932;51.438;5.470;2023-05-23T08:18:33;101825.00;;;20.20
15079;BMP180;6932;51.438;5.470;2023-05-23T08:20:58;101815.00;;;20.20
15079;BMP180;6932;51.438;5.470;2023-05-23T08:23:27;101817.00;;;20.20
15079;BMP180;6932;51.438;5.470;2023-05-23T08:25:53;101814.00;;;20.20
15079;BMP180;6932;51.438;5.470;2023-05-23T08:28:20;101827.00;;;20.20
15079;BMP180;6932;51.438;5.470;2023-05-23T08:30:46;101828.00;;;20.20
15079;BMP180;6932;51.438;5.470;2023-05-23T08:33:12;101822.00;;;20.20
15079;BMP180;6932;51.438;5.470;2023-05-23T08:35:37;101823.00;;;20.20
15079;BMP180;6932;51.438;5.470;2023-05-23T08:38:05;101828.00;;;20.20
15079;BMP180;6932;51.438;5.470;2023-05-23T08:40:35;101822.00;;;20.20
15079;BMP180;6932;51.438;5.470;2023-05-23T08:43:01;101825.00;;;20.20
15079;BMP180;6932;51.438;5.470;2023-05-23T08:45:27;101823.00;;;20.20
15079;BMP180;6932;51.438;5.470;2023-05-23T08:47:59;101828.00;;;20.20
15079;BMP180;6932;51.438;5.470;2023-05-23T08:50:29;101829.00;;;20.20
15079;BMP180;6932;51.438;5.470;2023-05-23T08:52:57;101833.00;;;20.20
15079;BMP180;6932;51.438;5.470;2023-05-23T08:55:28;101842.00;;;20.20
15079;BMP180;6932;51.438;5.470;2023-05-23T08:57:56;101844.00;;;20.20
15079;BMP180;6932;51.438;5.470;2023-05-23T09:00:26;101846.00;;;20.20
15079;BMP180;6932;51.438;5.470;2023-05-23T09:02:52;101845.00;;;20.20
15079;BMP180;6932;51.438;5.470;2023-05-23T09:05:20;101838.00;;;20.20
15079;BMP180;6932;51.438;5.470;2023-05-23T09:07:46;101836.00;;;20.20
15079;BMP180;6932;51.438;5.470;2023-05-23T09:10:14;101846.00;;;20.20
15079;BMP180;6932;51.438;5.470;2023-05-23T09:12:44;101853.00;;;20.20
15079;BMP180;6932;51.438;5.470;2023-05-23T09:15:11;101853.00;;;20.20
15079;BMP180;6932;51.438;5.470;2023-05-23T09:17:37;101852.00;;;20.20
15079;BMP180;6932;51.438;5.470;2023-05-23T09:20:11;101855.00;;;20.20
15079;BMP180;6932;51.438;5.470;2023-05-23T09:22:38;101871.00;;;20.30
15079;BMP180;6932;51.438;5.470;2023-05-23T09:25:05;101862.00;;;20.30
15079;BMP180;6932;51.438;5.470;2023-05-23T09:27:31;101861.00;;;20.30
15079;BMP180;6932;51.438;5.470;2023-05-23T09:30:09;101863.00;;;20.30
15079;BMP180;6932;51.438;5.470;2023-05-23T09:32:35;101870.00;;;20.40
15079;BMP180;6932;51.438;5.470;2023-05-23T09:35:07;101861.00;;;20.50
15079;BMP180;6932;51.438;5.470;2023-05-23T09:37:38;101861.00;;;20.50
15079;BMP180;6932;51.438;5.470;2023-05-23T09:40:10;101858.00;;;20.50
15079;BMP180;6932;51.438;5.470;2023-05-23T09:42:45;101863.00;;;20.50
15079;BMP180;6932;51.438;5.470;2023-05-23T09:45:15;101874.00;;;20.50
15079;BMP180;6932;51.438;5.470;2023-05-23T09:47:51;101876.00;;;20.50
15079;BMP180;6932;51.438;5.470;2023-05-23T09:50:18;101876.00;;;20.50
15079;BMP180;6932;51.438;5.470;2023-05-23T09:52:44;101870.00;;;20.50
15079;BMP180;6932;51.438;5.470;2023-05-23T09:55:11;101865.00;;;20.60
15079;BMP180;6932;51.438;5.470;2023-05-23T09:57:41;101871.00;;;20.60
15079;BMP180;6932;51.438;5.470;2023-05-23T10:00:08;101875.00;;;20.70
15079;BMP180;6932;51.438;5.470;2023-05-23T10:02:54;101881.00;;;20.80
15079;BMP180;6932;51.438;5.470;2023-05-23T10:05:30;101871.00;;;20.80
15079;BMP180;6932;51.438;5.470;2023-05-23T10:08:01;101874.00;;;20.80
15079;BMP180;6932;51.438;5.470;2023-05-23T10:10:32;101871.00;;;20.70
15079;BMP180;6932;51.438;5.470;2023-05-23T10:13:03;101876.00;;;20.80
15079;BMP180;6932;51.438;5.470;2023-05-23T10:15:37;101875.00;;;20.80
15079;BMP180;6932;51.438;5.470;2023-05-23T10:18:20;101885.00;;;20.80
15079;BMP180;6932;51.438;5.470;2023-05-23T10:20:51;101880.00;;;20.80
15079;BMP180;6932;51.438;5.470;2023-05-23T10:23:19;101876.00;;;20.80
15079;BMP180;6932;51.438;5.470;2023-05-23T10:25:47;101876.00;;;20.90
15079;BMP180;6932;51.438;5.470;2023-05-23T10:28:14;101881.00;;;20.90
15079;BMP180;6932;51.438;5.470;2023-05-23T10:30:40;101875.00;;;20.90
15079;BMP180;6932;51.438;5.470;2023-05-23T10:33:07;101891.00;;;21.00
15079;BMP180;6932;51.438;5.470;2023-05-23T10:38:54;101873.00;;;21.30
15079;BMP180;6932;51.438;5.470;2023-05-23T10:41:52;101880.00;;;21.40
15079;BMP180;6932;51.438;5.470;2023-05-23T10:44:27;101884.00;;;21.50
15079;BMP180;6932;51.438;5.470;2023-05-23T10:47:03;101886.00;;;21.60
15079;BMP180;6932;51.438;5.470;2023-05-23T10:49:45;101875.00;;;21.70
15079;BMP180;6932;51.438;5.470;2023-05-23T10:52:16;101880.00;;;21.80
15079;BMP180;6932;51.438;5.470;2023-05-23T10:54:47;101863.00;;;21.90
15079;BMP180;6932;51.438;5.470;2023-05-23T10:57:20;101860.00;;;22.00
15079;BMP180;6932;51.438;5.470;2023-05-23T10:59:49;101865.00;;;22.10
15079;BMP180;6932;51.438;5.470;2023-05-23T11:02:23;101852.00;;;22.20
15079;BMP180;6932;51.438;5.470;2023-05-23T11:05:21;101869.00;;;22.30
15079;BMP180;6932;51.438;5.470;2023-05-23T11:08:13;101862.00;;;22.40
15079;BMP180;6932;51.438;5.470;2023-05-23T11:11:01;101875.00;;;22.50
15079;BMP180;6932;51.438;5.470;2023-05-23T11:13:57;101869.00;;;22.50
15079;BMP180;6932;51.438;5.470;2023-05-23T11:16:38;101872.00;;;22.60
15079;BMP180;6932;51.438;5.470;2023-05-23T11:21:52;101870.00;;;22.70
15079;BMP180;6932;51.438;5.470;2023-05-23T11:24:18;101874.00;;;22.70
15079;BMP180;6932;51.438;5.470;2023-05-23T11:26:57;101853.00;;;22.80
15079;BMP180;6932;51.438;5.470;2023-05-23T11:29:26;101863.00;;;22.80
15079;BMP180;6932;51.438;5.470;2023-05-23T11:31:54;101871.00;;;22.90
15079;BMP180;6932;51.438;5.470;2023-05-23T11:34:24;101869.00;;;22.90
15079;BMP180;6932;51.438;5.470;2023-05-23T11:36:54;101887.00;;;23.00
15079;BMP180;6932;51.438;5.470;2023-05-23T11:39:21;101873.00;;;23.00
15079;BMP180;6932;51.438;5.470;2023-05-23T11:42:00;101870.00;;;23.00
15079;BMP180;6932;51.438;5.470;2023-05-23T11:44:27;101864.00;;;23.10
15079;BMP180;6932;51.438;5.470;2023-05-23T11:47:03;101877.00;;;23.20
15079;BMP180;6932;51.438;5.470;2023-05-23T11:49:34;101861.00;;;23.20
15079;BMP180;6932;51.438;5.470;2023-05-23T11:52:04;101875.00;;;23.20
15079;BMP180;6932;51.438;5.470;2023-05-23T11:54:33;101878.00;;;23.20
15079;BMP180;6932;51.438;5.470;2023-05-23T11:57:00;101874.00;;;23.30
15079;BMP180;6932;51.438;5.470;2023-05-23T11:59:27;101878.00;;;23.30
15079;BMP180;6932;51.438;5.470;2023-05-23T12:01:54;101887.00;;;23.30
15079;BMP180;6932;51.438;5.470;2023-05-23T12:04:21;101882.00;;;23.30
15079;BMP180;6932;51.438;5.470;2023-05-23T12:06:48;101886.00;;;23.40
15079;BMP180;6932;51.438;5.470;2023-05-23T12:09:15;101881.00;;;23.40
15079;BMP180;6932;51.438;5.470;2023-05-23T12:11:42;101875.00;;;23.40
15079;BMP180;6932;51.438;5.470;2023-05-23T12:14:14;101884.00;;;23.50
15079;BMP180;6932;51.438;5.470;2023-05-23T12:16:43;101887.00;;;23.40
15079;BMP180;6932;51.438;5.470;2023-05-23T12:19:15;101885.00;;;23.40
15079;BMP180;6932;51.438;5.470;2023-05-23T12:21:47;101895.00;;;23.40
15079;BMP180;6932;51.438;5.470;2023-05-23T12:24:21;101894.00;;;23.40
15079;BMP180;6932;51.438;5.470;2023-05-23T12:27:00;101896.00;;;23.30
15079;BMP180;6932;51.438;5.470;2023-05-23T12:29:34;101897.00;;;23.20
15079;BMP180;6932;51.438;5.470;2023-05-23T12:32:05;101900.00;;;23.10
15079;BMP180;6932;51.438;5.470;2023-05-23T12:34:32;101904.00;;;23.10
15079;BMP180;6932;51.438;5.470;2023-05-23T12:37:00;101900.00;;;23.00
15079;BMP180;6932;51.438;5.470;2023-05-23T12:39:29;101899.00;;;23.00
15079;BMP180;6932;51.438;5.470;2023-05-23T12:42:06;101911.00;;;23.00
15079;BMP180;6932;51.438;5.470;2023-05-23T12:44:33;101906.00;;;23.00
15079;BMP180;6932;51.438;5.470;2023-05-23T12:46:58;101906.00;;;23.00
15079;BMP180;6932;51.438;5.470;2023-05-23T12:49:24;101910.00;;;22.90
15079;BMP180;6932;51.438;5.470;2023-05-23T12:51:50;101921.00;;;22.90
15079;BMP180;6932;51.438;5.470;2023-05-23T12:54:17;101924.00;;;22.80
15079;BMP180;6932;51.438;5.470;2023-05-23T12:56:42;101927.00;;;22.80
15079;BMP180;6932;51.438;5.470;2023-05-23T12:59:08;101920.00;;;22.80
15079;BMP180;6932;51.438;5.470;2023-05-23T13:01:34;101928.00;;;22.80
15079;BMP180;6932;51.438;5.470;2023-05-23T13:04:00;101928.00;;;22.80
15079;BMP180;6932;51.438;5.470;2023-05-23T13:06:27;101928.00;;;22.90
15079;BMP180;6932;51.438;5.470;2023-05-23T13:08:53;101911.00;;;22.90
15079;BMP180;6932;51.438;5.470;2023-05-23T13:11:22;101912.00;;;22.90
15079;BMP180;6932;51.438;5.470;2023-05-23T13:13:49;101922.00;;;23.00
15079;BMP180;6932;51.438;5.470;2023-05-23T13:16:16;101921.00;;;23.00
15079;BMP180;6932;51.438;5.470;2023-05-23T13:18:42;101917.00;;;23.00
15079;BMP180;6932;51.438;5.470;2023-05-23T13:21:08;101914.00;;;23.10
15079;BMP180;6932;51.438;5.470;2023-05-23T13:23:34;101913.00;;;23.10
15079;BMP180;6932;51.438;5.470;2023-05-23T13:26:02;101914.00;;;23.10
15079;BMP180;6932;51.438;5.470;2023-05-23T13:28:28;101914.00;;;23.10
15079;BMP180;6932;51.438;5.470;2023-05-23T13:30:54;101907.00;;;23.10
15079;BMP180;6932;51.438;5.470;2023-05-23T13:33:20;101904.00;;;23.10
15079;BMP180;6932;51.438;5.470;2023-05-23T13:35:50;101899.00;;;23.10
15079;BMP180;6932;51.438;5.470;2023-05-23T13:38:19;101915.00;;;23.10
15079;BMP180;6932;51.438;5.470;2023-05-23T13:40:45;101908.00;;;23.10
15079;BMP180;6932;51.438;5.470;2023-05-23T13:43:10;101903.00;;;23.20
15079;BMP180;6932;51.438;5.470;2023-05-23T13:45:36;101914.00;;;23.20
15079;BMP180;6932;51.438;5.470;2023-05-23T13:48:02;101908.00;;;23.20
15079;BMP180;6932;51.438;5.470;2023-05-23T13:50:28;101916.00;;;23.20
15079;BMP180;6932;51.438;5.470;2023-05-23T13:52:53;101904.00;;;23.20
15079;BMP180;6932;51.438;5.470;2023-05-23T13:55:19;101907.00;;;23.20
15079;BMP180;6932;51.438;5.470;2023-05-23T13:57:45;101916.00;;;23.10
15079;BMP180;6932;51.438;5.470;2023-05-23T14:00:12;101911.00;;;23.10
15079;BMP180;6932;51.438;5.470;2023-05-23T14:02:38;101915.00;;;23.10
15079;BMP180;6932;51.438;5.470;2023-05-23T14:05:05;101914.00;;;23.10
15079;BMP180;6932;51.438;5.470;2023-05-23T14:07:31;101912.00;;;23.20
15079;BMP180;6932;51.438;5.470;2023-05-23T14:09:57;101907.00;;;23.20
15079;BMP180;6932;51.438;5.470;2023-05-23T14:12:24;101913.00;;;23.20
15079;BMP180;6932;51.438;5.470;2023-05-23T14:14:51;101909.00;;;23.20
15079;BMP180;6932;51.438;5.470;2023-05-23T14:17:17;101911.00;;;23.20
15079;BMP180;6932;51.438;5.470;2023-05-23T14:19:44;101918.00;;;23.20
15079;BMP180;6932;51.438;5.470;2023-05-23T14:22:10;101917.00;;;23.20